Historyczne dane pomiarowe

Dodano dane terminowe – wersja testowa.

Dane z okresu 1951-2019

Wersja bazy: 1.34 [2019-03-16, lista zmian], aktualizacja planowana na 2019-04-15

Dane meteo z obszaru Polski uzyskane na podstawie danych udostępnionych przez Instytut Meteorologii i Gospodarki Wodnej – Państwowy Instytut Badawczy.

 

Wybierz Datę:    

       

TemperaturaWilgotnośćWiatrCiśnienieOpadyŚniegCzas trwania zjawisk
 Stacja t tx tn tng RH VA  wxwx mslp ppp RRR   cm mm wxwxwxwxwxwxwx
1961-08-14 13.9 19.3 7.3- 78.0- 7.3 3.0---- 0.0------------
1961-08-13 13.3 18.5 9.4- 77.5- 2.7 2.3---- 0.0------------
1961-08-12 16.8 22.3 11.7- 88.3- 6.0 2.3---- 0.0------------
1961-08-11 15.0 17.3 13.4- 95.3- 5.3 2.3---- 1.8------------
1961-08-10 16.6 22.1 10.1- 88.8- 5.7 2.3---- 13.3------------
1961-08-09 17.6 24.4 12.7- 81.0- 4.7 1.7---- 0.0------------
1961-08-08 16.5 20.5 10.3- 81.5- 5.0 1.3---- 0.0------------
1961-08-07 15.2 16.9 12.2- 95.0- 7.0 2.7---- 4.7------------
1961-08-06 19.9 28.1 14.5- 79.8- 3.7 3.0---- 22.5------------
1961-08-05 18.0 21.8 13.6- 75.5- 5.7 3.0---- 1.7------------
1961-08-04 13.8 16.8 7.4- 90.0- 7.3 3.7---- 1.2------------
1961-08-03 13.6 19.6 11.2- 88.3- 4.7 2.0---- 2.4------------
1961-08-02 16.2 22.0 10.2- 80.0- 6.0 1.3---- 8.8------------
1961-08-01 15.3 19.2 13.5- 87.0- 8.0 5.0---- 0.6------------
1961-07-31 14.7 18.1 13.9- 92.8- 8.0 3.3---- 9.5------------
1961-07-30 15.1 18.7 11.0- 86.3- 7.3 1.7---- 2.4------------
1961-07-29 14.6 18.5 10.9- 79.3- 7.3 2.0---- 0.0------------
1961-07-28 13.9 15.4 11.2- 92.8- 7.7 2.3---- 3.4------------
1961-07-27 17.2 21.6 14.4- 78.0- 7.7 4.0---- 0.3------------
1961-07-26 17.0 19.9 12.4- 79.5- 8.0 3.7---- 1.5------------
1961-07-25 14.2 17.3 9.6- 77.8- 8.0 2.0---- 0.7------------
1961-07-24 14.1 17.6 11.8- 77.0- 6.3 5.0---- 0.0------------
1961-07-23 14.9 18.8 13.4- 83.0- 7.7 2.7---- 0.8------------
1961-07-22 16.1 19.1 12.9- 85.8- 5.0 3.0---- 0.1------------
1961-07-21 15.4 18.8 10.2- 88.0- 7.7 2.3---- 14.1------------
1961-07-20 15.2 21.0 9.7- 88.3- 6.7 3.0---- 1.2------------
1961-07-19 15.5 20.6 10.1- 86.8- 6.3 2.0---- 14.0------------
1961-07-18 14.1 17.7 12.2- 98.8- 8.0 1.3---- 2.3------------
1961-07-17 15.5 21.3 8.9- 87.8- 6.7 1.7---- 3.2------------
1961-07-16 14.4 17.2 7.9- 95.0- 7.7 1.7---- 5.6------------
1961-07-15 15.6 21.8 9.3- 88.5- 5.3 1.3---- 2.1------------
1961-07-14 14.3 18.5 13.4- 90.0- 8.0 5.3---- 0.0------------
1961-07-13 19.8 28.2 12.1- 89.5- 5.3 3.7---- 12.1------------
1961-07-12 16.8 23.9 13.4- 88.8- 5.0 2.0---- 0.0------------
1961-07-11 14.6 20.5 7.8- 80.0- 7.0 1.7---- 7.1------------
1961-07-10 15.2 21.0 9.7- 88.3- 6.7 3.0---- 0.1------------
1961-07-09 14.2 19.7 10.2- 89.8- 7.7 2.7---- 7.2------------
1961-07-08 14.0 19.8 6.4- 88.0- 8.0 2.7---- 4.1------------
1961-07-07 12.5 16.8 8.3- 77.5- 7.3 4.0---- 5.6------------
1961-07-06 12.0 15.1 7.4- 83.0- 6.0 3.3---- 3.1------------
1961-07-05 12.8 17.9 10.8- 75.0- 4.7 7.0---- 0.0------------
1961-07-04 15.9 21.0 10.9- 83.5- 6.0 4.3---- 0.0------------
1961-07-03 23.1 32.4 12.3- 65.5- 4.7 3.3---- 0.6------------
1961-07-02 20.7 27.9 8.6- 68.5- 0.7 0.7---- 0.0------------
1961-07-01 18.1 24.5 13.5- 79.8- 2.0 2.7---- 0.0------------
1961-06-30 17.1 25.4 8.8- 74.5- 0.0 3.0---- 0.0------------
1961-06-29 14.6 20.3 9.4- 79.5- 5.7 3.7---- 0.0------------
1961-06-28 15.4 20.3 13.8- 57.0- 3.7 4.0---- 0.0------------
1961-06-27 21.3 29.9 12.3- 78.3- 5.7 2.3---- 0.1------------
1961-06-26 19.2 26.6 13.4- 74.0- 0.3 3.7---- 0.0------------
1961-06-25 19.3 27.2 12.7- 64.3- 5.0 3.7---- 0.0------------
1961-06-24 17.3 22.0 12.2- 64.3- 6.3 5.3---- 0.0------------
1961-06-23 16.8 22.3 9.8- 73.3- 4.7 3.0---- 0.0------------
1961-06-22 16.0 20.7 7.8- 72.0- 3.3 2.7---- 0.0------------
1961-06-21 13.7 21.6 7.3- 76.5- 5.3 2.0---- 10.4------------
1961-06-20 13.0 19.5 7.7- 69.8- 4.0 3.0---- 0.0------------
1961-06-19 14.7 20.2 12.1- 69.3- 2.7 4.3---- 0.0------------
1961-06-18 20.6 26.9 15.4- 67.0- 6.3 6.0---- 0.0------------
1961-06-17 17.8 22.5 11.5- 77.8- 4.7 2.7---- 0.0------------
1961-06-16 13.8 17.1 11.8- 88.3- 7.7 4.7---- 0.0------------
520.0 ms

 

Źródłem pochodzenia danych jest Instytut Meteorologii i Gospodarki Wodnej – Państwowy Instytut Badawczy. Dane Instytutu Meteorologii i Gospodarki Wodnej – Państwowego Instytutu Badawczego zostały przetworzone.

Dane źródłowe można odnaleźć na stronie https://dane.imgw.pl